Terminal Aerodrome Forecast
Issued by NWS

Home | Current Version | Previous Version | Text Only | Print | Product List | Glossary On
Versions: 1 2 3 4 5 6 7 8 9 10 11 12
000
FTUS45 KGJT 252325
TAFRIL
TAF
KRIL 252325Z 2600/2624 27012KT P6SM SCT250
     FM260200 18004KT P6SM SCT250
     FM261400 21003KT P6SM BKN150
     FM261900 25012G22KT P6SM BKN120 BKN200=

USA.gov is the U.S. government's official web portal to all federal, state and local government web resources and services.